createdAt,value
2023-04-23T00:00:02.904Z,63.61
2023-04-23T00:02:29.288Z,63.44
2023-04-23T00:04:55.867Z,63.72
2023-04-23T00:07:22.239Z,63.49
2023-04-23T00:09:48.568Z,63.36
2023-04-23T00:12:14.910Z,63.47
2023-04-23T00:14:41.524Z,63.39
2023-04-23T00:17:07.968Z,63.88
2023-04-23T00:19:34.287Z,64.32
2023-04-23T00:22:00.592Z,64.10
2023-04-23T00:24:26.930Z,64.65
2023-04-23T00:26:53.244Z,65.02
2023-04-23T00:29:19.571Z,65.16
2023-04-23T00:31:45.973Z,65.81
2023-04-23T00:34:12.312Z,65.80
2023-04-23T00:36:38.678Z,65.57
2023-04-23T00:39:04.990Z,65.31
2023-04-23T00:41:31.295Z,65.92
2023-04-23T00:43:57.598Z,65.53
2023-04-23T00:46:24.050Z,64.93
2023-04-23T00:48:50.436Z,65.35
2023-04-23T00:51:16.731Z,64.81
2023-04-23T00:53:43.061Z,65.02
2023-04-23T00:56:09.375Z,65.23
2023-04-23T00:58:35.693Z,65.34
2023-04-23T01:01:02.037Z,65.35
2023-04-23T01:03:28.506Z,65.82
2023-04-23T01:05:54.866Z,65.65
2023-04-23T01:08:21.184Z,66.42
2023-04-23T01:10:47.517Z,66.08
2023-04-23T01:13:13.826Z,66.42
2023-04-23T01:15:40.145Z,66.35
2023-04-23T01:18:06.462Z,66.49
2023-04-23T01:20:32.761Z,66.99
2023-04-23T01:22:59.075Z,66.56
2023-04-23T01:25:25.418Z,66.90
2023-04-23T01:27:51.734Z,66.41
2023-04-23T01:30:18.068Z,66.33
2023-04-23T01:32:44.395Z,66.23
2023-04-23T01:35:10.727Z,66.64
2023-04-23T01:37:37.061Z,66.94
2023-04-23T01:40:03.408Z,66.97
2023-04-23T01:42:29.727Z,67.23
2023-04-23T01:44:56.048Z,66.88
2023-04-23T01:47:22.401Z,66.87
2023-04-23T01:49:48.761Z,66.89
2023-04-23T01:52:15.073Z,67.20
2023-04-23T01:54:41.631Z,66.79
2023-04-23T01:57:08.159Z,67.20
2023-04-23T01:59:34.487Z,66.95
2023-04-23T02:02:00.833Z,67.05
2023-04-23T02:04:27.418Z,67.44
2023-04-23T02:06:53.816Z,67.00
2023-04-23T02:09:20.121Z,66.84
2023-04-23T02:11:46.447Z,66.95
2023-04-23T02:14:12.772Z,66.86
2023-04-23T02:16:39.161Z,66.89
2023-04-23T02:19:05.480Z,66.65
2023-04-23T02:21:31.816Z,66.58
2023-04-23T02:23:58.131Z,66.46
2023-04-23T02:26:24.438Z,66.57
2023-04-23T02:28:50.747Z,66.49
2023-04-23T02:31:17.115Z,67.30
2023-04-23T02:33:43.443Z,67.18
2023-04-23T02:36:09.746Z,67.47
2023-04-23T02:38:36.050Z,66.93
2023-04-23T02:41:02.341Z,66.66
2023-04-23T02:43:28.640Z,66.89
2023-04-23T02:45:54.955Z,66.61
2023-04-23T02:48:21.280Z,66.41
2023-04-23T02:50:47.605Z,67.23
2023-04-23T02:53:13.939Z,67.36
2023-04-23T02:55:40.276Z,67.33
2023-04-23T02:58:06.592Z,67.20
2023-04-23T03:00:32.913Z,66.74
2023-04-23T03:02:59.333Z,66.36
2023-04-23T03:05:25.694Z,67.40
2023-04-23T03:07:52.013Z,67.37
2023-04-23T03:10:18.333Z,67.00
2023-04-23T03:12:44.672Z,67.40
2023-04-23T03:15:11.011Z,67.57
2023-04-23T03:17:37.362Z,66.49
2023-04-23T03:20:03.683Z,67.40
2023-04-23T03:22:29.995Z,66.33
2023-04-23T03:24:56.332Z,67.16
2023-04-23T03:27:22.670Z,66.44
2023-04-23T03:29:48.988Z,66.56
2023-04-23T03:32:15.313Z,66.75
2023-04-23T03:34:41.855Z,66.94
2023-04-23T03:37:08.359Z,67.29
2023-04-23T03:39:34.696Z,67.36
2023-04-23T03:42:01.011Z,67.84
2023-04-23T03:44:27.345Z,67.92
2023-04-23T03:46:53.649Z,68.15
2023-04-23T03:49:19.968Z,68.15
2023-04-23T03:51:46.287Z,68.63
2023-04-23T03:54:12.604Z,68.05
2023-04-23T03:56:38.921Z,68.14
2023-04-23T03:59:05.222Z,67.56
2023-04-23T04:01:31.524Z,67.54
2023-04-23T04:03:58.093Z,67.78
2023-04-23T04:06:24.545Z,67.72
2023-04-23T04:08:50.866Z,68.19
2023-04-23T04:11:17.174Z,67.70
2023-04-23T04:13:43.491Z,67.55
2023-04-23T04:16:09.828Z,67.60
2023-04-23T04:18:36.209Z,67.36
2023-04-23T04:21:02.540Z,67.59
2023-04-23T04:23:28.879Z,67.43
2023-04-23T04:25:55.188Z,67.39
2023-04-23T04:28:21.490Z,67.56
2023-04-23T04:30:47.805Z,67.45
2023-04-23T04:33:14.124Z,67.35
2023-04-23T04:35:40.459Z,67.34
2023-04-23T04:38:06.784Z,67.47
2023-04-23T04:40:33.085Z,67.50
2023-04-23T04:42:59.408Z,66.96
2023-04-23T04:45:25.714Z,67.18
2023-04-23T04:47:52.043Z,66.99
2023-04-23T04:50:18.364Z,66.85
2023-04-23T04:52:44.684Z,67.08
2023-04-23T04:55:11.019Z,66.89
2023-04-23T04:57:37.361Z,67.57
2023-04-23T05:00:03.721Z,67.22
2023-04-23T05:02:30.133Z,67.10
2023-04-23T05:04:56.480Z,66.91
2023-04-23T05:07:22.810Z,67.22
2023-04-23T05:09:49.210Z,66.82
2023-04-23T05:12:15.542Z,67.18
2023-04-23T05:14:42.074Z,67.35
2023-04-23T05:17:08.610Z,67.43
2023-04-23T05:19:34.928Z,67.52
2023-04-23T05:22:01.237Z,67.30
2023-04-23T05:24:27.564Z,66.73
2023-04-23T05:26:53.884Z,67.27
2023-04-23T05:29:20.208Z,66.79
2023-04-23T05:31:46.571Z,67.27
2023-04-23T05:34:12.919Z,67.30
2023-04-23T05:36:39.218Z,67.00
2023-04-23T05:39:05.521Z,67.01
2023-04-23T05:41:31.841Z,67.02
2023-04-23T05:43:58.136Z,66.54
2023-04-23T05:46:24.485Z,65.94
2023-04-23T05:48:50.858Z,66.09
2023-04-23T05:51:17.214Z,66.17
2023-04-23T05:53:43.536Z,65.94
2023-04-23T05:56:09.855Z,65.71
2023-04-23T05:58:36.181Z,66.07
2023-04-23T06:01:02.492Z,66.64
2023-04-23T06:03:28.969Z,67.03
2023-04-23T06:05:55.489Z,66.64
2023-04-23T06:08:23.273Z,66.61
2023-04-23T06:10:50.884Z,66.64
2023-04-23T06:13:17.185Z,66.52
2023-04-23T06:15:43.534Z,66.03
2023-04-23T06:18:09.944Z,65.52
2023-04-23T06:20:36.284Z,65.09
2023-04-23T06:23:02.615Z,65.26
2023-04-23T06:25:28.936Z,65.52
2023-04-23T06:27:55.261Z,64.98
2023-04-23T06:30:21.581Z,65.54
2023-04-23T06:32:47.933Z,64.56
2023-04-23T06:35:14.270Z,64.09
2023-04-23T06:37:40.574Z,63.67
2023-04-23T06:40:06.914Z,64.03
2023-04-23T06:42:33.264Z,64.00
2023-04-23T06:44:59.650Z,63.72
2023-04-23T06:47:26.003Z,64.77
2023-04-23T06:49:52.303Z,64.82
2023-04-23T06:52:18.612Z,65.06
2023-04-23T06:54:45.144Z,64.44
2023-04-23T06:57:11.536Z,64.24
2023-04-23T06:59:37.837Z,64.35
2023-04-23T07:02:04.141Z,63.95
2023-04-23T07:04:30.544Z,63.28
2023-04-23T07:06:56.933Z,63.07
2023-04-23T07:09:23.314Z,61.99
2023-04-23T07:11:49.703Z,64.04
2023-04-23T07:14:16.033Z,63.73
2023-04-23T07:16:42.394Z,63.60
2023-04-23T07:19:08.750Z,63.72
2023-04-23T07:21:35.063Z,64.22
2023-04-23T07:24:01.372Z,64.00
2023-04-23T07:26:27.691Z,63.38
2023-04-23T07:28:54.004Z,64.00
2023-04-23T07:31:20.325Z,64.19
2023-04-23T07:33:46.641Z,64.52
2023-04-23T07:36:12.953Z,65.29
2023-04-23T07:38:39.253Z,64.05
2023-04-23T07:41:05.578Z,64.40
2023-04-23T07:43:31.885Z,64.18
2023-04-23T07:45:58.251Z,64.71
2023-04-23T07:48:24.576Z,64.24
2023-04-23T07:50:50.876Z,63.93
2023-04-23T07:53:17.246Z,64.11
2023-04-23T07:55:43.586Z,62.57
2023-04-23T07:58:09.900Z,62.10
2023-04-23T08:00:36.227Z,62.37
2023-04-23T08:03:02.685Z,62.20
2023-04-23T08:05:29.186Z,61.72
2023-04-23T08:07:55.556Z,60.08
2023-04-23T08:10:21.887Z,60.90
2023-04-23T08:12:48.213Z,60.56
2023-04-23T08:15:14.519Z,59.68
2023-04-23T08:17:40.865Z,59.38
2023-04-23T08:20:07.222Z,60.86
2023-04-23T08:22:33.531Z,60.14
2023-04-23T08:24:59.862Z,59.90
2023-04-23T08:27:26.182Z,60.11
2023-04-23T08:29:52.499Z,60.44
2023-04-23T08:32:18.930Z,60.82
2023-04-23T08:34:45.292Z,61.48
2023-04-23T08:37:19.630Z,61.14
2023-04-23T08:39:49.754Z,60.55
2023-04-23T08:42:16.140Z,60.25
2023-04-23T08:44:42.471Z,60.57
2023-04-23T08:47:08.796Z,60.37
2023-04-23T08:49:35.105Z,59.05
2023-04-23T08:52:01.440Z,59.21
2023-04-23T08:54:27.781Z,59.12
2023-04-23T08:56:54.094Z,59.09
2023-04-23T08:59:20.408Z,57.49
2023-04-23T09:01:46.738Z,59.44
2023-04-23T09:04:13.064Z,58.24
2023-04-23T09:06:39.373Z,58.37
2023-04-23T09:09:05.664Z,58.46
2023-04-23T09:11:31.969Z,57.96
2023-04-23T09:13:58.315Z,59.75
2023-04-23T09:16:24.679Z,57.99
2023-04-23T09:18:50.996Z,56.18
2023-04-23T09:21:17.308Z,57.28
2023-04-23T09:23:43.610Z,56.84
2023-04-23T09:26:09.928Z,56.56
2023-04-23T09:28:36.264Z,57.31
2023-04-23T09:31:02.574Z,56.23
2023-04-23T09:33:28.876Z,57.13
2023-04-23T09:35:55.215Z,52.56
2023-04-23T09:38:21.537Z,56.58
2023-04-23T09:40:47.841Z,56.72
2023-04-23T09:43:14.140Z,55.42
2023-04-23T09:45:40.486Z,54.55
2023-04-23T09:48:06.932Z,53.70
2023-04-23T09:50:33.273Z,53.30
2023-04-23T09:52:59.617Z,54.58
2023-04-23T09:55:25.933Z,54.64
2023-04-23T09:57:52.237Z,55.51
2023-04-23T10:00:18.728Z,54.54
2023-04-23T10:02:45.492Z,56.62
2023-04-23T10:05:22.792Z,54.59
2023-04-23T10:07:50.364Z,54.27
2023-04-23T10:10:16.673Z,54.83
2023-04-23T10:12:54.476Z,52.76
2023-04-23T10:15:21.806Z,53.26
2023-04-23T10:17:48.195Z,51.86
2023-04-23T10:20:14.551Z,50.55
2023-04-23T10:22:40.858Z,52.80
2023-04-23T10:25:07.184Z,51.91
2023-04-23T10:27:51.264Z,51.78
2023-04-23T10:30:19.776Z,51.48
2023-04-23T10:32:47.173Z,51.03
2023-04-23T10:35:13.500Z,50.42
2023-04-23T10:37:39.848Z,49.38
2023-04-23T10:40:06.223Z,48.88
2023-04-23T10:42:32.554Z,48.20
2023-04-23T10:45:04.756Z,50.70
2023-04-23T10:47:33.710Z,48.42
2023-04-23T10:50:00.140Z,49.26
2023-04-23T10:52:26.586Z,47.66
2023-04-23T10:54:52.954Z,49.35
2023-04-23T10:57:19.274Z,50.40
2023-04-23T10:59:45.608Z,46.26
2023-04-23T11:02:12.006Z,48.55
2023-04-23T11:04:38.424Z,48.21
2023-04-23T11:07:04.787Z,48.61
2023-04-23T11:09:31.130Z,48.15
2023-04-23T11:11:57.437Z,47.31
2023-04-23T11:14:23.733Z,48.32
2023-04-23T11:16:50.185Z,48.72
2023-04-23T11:19:19.914Z,49.89
2023-04-23T11:21:46.961Z,49.49
2023-04-23T11:24:13.275Z,49.22
2023-04-23T11:26:39.593Z,48.90
2023-04-23T11:29:05.913Z,49.48
2023-04-23T11:31:32.385Z,49.72
2023-04-23T11:33:58.733Z,49.04
2023-04-23T11:36:25.032Z,49.08
2023-04-23T11:38:51.332Z,49.62
2023-04-23T11:41:18.315Z,49.63
2023-04-23T11:43:45.833Z,48.66
2023-04-23T11:46:12.167Z,49.21
2023-04-23T11:48:38.474Z,48.38
2023-04-23T11:51:04.790Z,48.45
2023-04-23T11:53:31.096Z,48.74
2023-04-23T11:55:57.388Z,49.24
2023-04-23T11:58:23.704Z,46.06
2023-04-23T12:00:50.035Z,47.81
2023-04-23T12:03:16.506Z,46.51
2023-04-23T12:05:43.106Z,47.66
2023-04-23T12:08:09.467Z,46.84
2023-04-23T12:10:35.780Z,46.19
2023-04-23T12:13:02.105Z,45.64
2023-04-23T12:15:28.425Z,45.25
2023-04-23T12:17:54.793Z,45.27
2023-04-23T12:20:21.181Z,43.99
2023-04-23T12:22:47.524Z,43.21
2023-04-23T12:25:13.837Z,45.38
2023-04-23T12:27:40.182Z,46.04
2023-04-23T12:30:07.354Z,43.13
2023-04-23T12:32:33.837Z,42.75
2023-04-23T12:35:00.184Z,44.26
2023-04-23T12:37:26.519Z,44.13
2023-04-23T12:39:52.850Z,45.33
2023-04-23T12:42:19.159Z,44.45
2023-04-23T12:44:45.469Z,44.18
2023-04-23T12:47:11.788Z,44.77
2023-04-23T12:49:38.112Z,44.56
2023-04-23T12:52:04.424Z,44.31
2023-04-23T12:54:30.752Z,42.49
2023-04-23T12:56:57.058Z,42.51
2023-04-23T12:59:23.394Z,43.73
2023-04-23T13:01:49.720Z,43.72
2023-04-23T13:04:16.044Z,43.48
2023-04-23T13:06:42.368Z,42.59
2023-04-23T13:09:08.692Z,42.93
2023-04-23T13:11:35.026Z,44.49
2023-04-23T13:14:01.335Z,41.72
2023-04-23T13:16:27.673Z,42.24
2023-04-23T13:18:54.009Z,41.74
2023-04-23T13:21:20.332Z,42.15
2023-04-23T13:23:46.664Z,41.73
2023-04-23T13:26:12.991Z,41.42
2023-04-23T13:28:39.313Z,40.95
2023-04-23T13:31:05.647Z,41.56
2023-04-23T13:33:31.972Z,42.14
2023-04-23T13:35:58.307Z,42.17
2023-04-23T13:38:24.629Z,43.58
2023-04-23T13:40:50.964Z,42.44
2023-04-23T13:43:17.282Z,42.87
2023-04-23T13:45:43.606Z,43.59
2023-04-23T13:48:09.944Z,42.57
2023-04-23T13:50:36.260Z,40.91
2023-04-23T13:53:02.589Z,40.76
2023-04-23T13:55:28.886Z,41.88
2023-04-23T13:57:55.211Z,42.08
2023-04-23T14:00:21.536Z,42.54
2023-04-23T14:02:47.950Z,41.52
2023-04-23T14:05:14.301Z,42.12
2023-04-23T14:07:40.627Z,42.64
2023-04-23T14:10:06.964Z,43.31
2023-04-23T14:12:33.269Z,42.84
2023-04-23T14:14:59.576Z,42.54
2023-04-23T14:17:25.917Z,43.69
2023-04-23T14:19:52.255Z,43.25
2023-04-23T14:22:18.566Z,43.31
2023-04-23T14:24:44.893Z,43.09
2023-04-23T14:27:11.201Z,42.02
2023-04-23T14:29:37.513Z,42.04
2023-04-23T14:32:03.825Z,42.96
2023-04-23T14:34:30.144Z,41.35
2023-04-23T14:36:56.470Z,40.54
2023-04-23T14:39:22.852Z,40.50
2023-04-23T14:41:49.218Z,39.26
2023-04-23T14:44:15.533Z,40.21
2023-04-23T14:46:41.850Z,40.95
2023-04-23T14:49:08.176Z,39.72
2023-04-23T14:51:34.496Z,41.75
2023-04-23T14:54:00.833Z,40.51
2023-04-23T14:56:27.144Z,39.99
2023-04-23T14:58:53.467Z,39.55
2023-04-23T15:01:19.814Z,41.18
2023-04-23T15:03:46.701Z,41.61
2023-04-23T15:06:13.251Z,41.24
2023-04-23T15:08:39.566Z,41.03
2023-04-23T15:11:05.899Z,42.01
2023-04-23T15:13:32.221Z,39.92
2023-04-23T15:15:58.557Z,41.81
2023-04-23T15:18:24.877Z,41.62
2023-04-23T15:20:51.176Z,39.79
2023-04-23T15:23:17.488Z,39.50
2023-04-23T15:25:43.804Z,39.37
2023-04-23T15:28:10.150Z,40.44
2023-04-23T15:30:36.460Z,41.23
2023-04-23T15:33:02.789Z,41.07
2023-04-23T15:35:29.123Z,40.68
2023-04-23T15:37:55.443Z,41.00
2023-04-23T15:40:21.750Z,42.78
2023-04-23T15:42:48.081Z,47.52
2023-04-23T15:45:14.384Z,50.49
2023-04-23T15:47:40.701Z,51.59
2023-04-23T15:50:07.011Z,52.50
2023-04-23T15:52:33.313Z,53.63
2023-04-23T15:54:59.631Z,53.64
2023-04-23T15:57:25.970Z,54.09
2023-04-23T15:59:52.268Z,55.20
2023-04-23T16:02:18.676Z,55.84
2023-04-23T16:04:45.154Z,56.88
2023-04-23T16:07:11.655Z,57.39
2023-04-23T16:09:37.971Z,59.15
2023-04-23T16:12:04.289Z,59.67
2023-04-23T16:14:30.608Z,59.67
2023-04-23T16:16:56.958Z,61.47
2023-04-23T16:19:23.271Z,61.32
2023-04-23T16:21:49.667Z,58.85
2023-04-23T16:24:15.971Z,57.38
2023-04-23T16:26:42.278Z,60.06
2023-04-23T16:29:21.389Z,60.02
2023-04-23T16:31:48.741Z,60.52
2023-04-23T16:34:15.046Z,60.22
2023-04-23T16:36:41.453Z,59.89
2023-04-23T16:39:07.769Z,59.85
2023-04-23T16:41:34.085Z,58.55
2023-04-23T16:44:00.445Z,58.93
2023-04-23T16:46:26.804Z,57.87
2023-04-23T16:48:53.124Z,57.47
2023-04-23T16:51:19.459Z,57.73
2023-04-23T16:53:45.780Z,57.75
2023-04-23T16:56:12.084Z,58.27
2023-04-23T16:58:38.397Z,58.82
2023-04-23T17:01:04.706Z,59.67
2023-04-23T17:03:31.148Z,59.40
2023-04-23T17:05:57.601Z,60.45
2023-04-23T17:08:23.927Z,61.53
2023-04-23T17:10:50.252Z,62.00
2023-04-23T17:13:16.580Z,62.56
2023-04-23T17:15:42.933Z,63.17
2023-04-23T17:18:10.572Z,63.27
2023-04-23T17:20:37.563Z,63.30
2023-04-23T17:23:03.870Z,63.60
2023-04-23T17:25:30.189Z,63.37
2023-04-23T17:27:56.510Z,63.66
2023-04-23T17:30:22.821Z,63.65
2023-04-23T17:32:49.198Z,63.71
2023-04-23T17:35:15.531Z,63.50
2023-04-23T17:37:41.858Z,63.19
2023-04-23T17:40:08.238Z,63.40
2023-04-23T17:42:34.567Z,63.57
2023-04-23T17:45:00.883Z,63.85
2023-04-23T17:47:27.189Z,64.10
2023-04-23T17:49:53.542Z,63.91
2023-04-23T17:52:19.843Z,64.04
2023-04-23T17:54:46.150Z,64.41
2023-04-23T17:57:12.467Z,63.63
2023-04-23T17:59:38.786Z,63.37
2023-04-23T18:02:05.138Z,63.22
2023-04-23T18:04:31.534Z,62.86
2023-04-23T18:06:57.862Z,63.14
2023-04-23T18:09:24.177Z,62.66
2023-04-23T18:11:50.581Z,62.65
2023-04-23T18:14:16.889Z,61.88
2023-04-23T18:16:43.252Z,61.76
2023-04-23T18:19:09.828Z,61.71
2023-04-23T18:21:36.161Z,61.78
2023-04-23T18:24:02.504Z,61.81
2023-04-23T18:26:29.265Z,62.16
2023-04-23T18:28:55.695Z,62.38
2023-04-23T18:31:22.130Z,62.63
2023-04-23T18:33:48.516Z,62.78
2023-04-23T18:36:14.829Z,63.27
2023-04-23T18:38:41.174Z,63.95
2023-04-23T18:41:07.494Z,64.32
2023-04-23T18:43:33.816Z,64.27
2023-04-23T18:46:00.246Z,64.25
2023-04-23T18:48:26.586Z,64.29
2023-04-23T18:50:52.898Z,65.99
2023-04-23T18:53:21.607Z,64.81
2023-04-23T18:55:48.475Z,64.93
2023-04-23T18:58:14.793Z,64.65
2023-04-23T19:00:41.106Z,64.31
2023-04-23T19:03:19.581Z,64.02
2023-04-23T19:05:51.917Z,63.53
2023-04-23T19:08:18.219Z,63.18
2023-04-23T19:10:44.528Z,63.38
2023-04-23T19:13:10.837Z,63.01
2023-04-23T19:15:37.196Z,64.50
2023-04-23T19:18:03.746Z,63.49
2023-04-23T19:20:30.070Z,64.08
2023-04-23T19:22:56.393Z,64.10
2023-04-23T19:25:22.722Z,63.77
2023-04-23T19:27:49.018Z,63.27
2023-04-23T19:30:15.332Z,62.97
2023-04-23T19:32:41.692Z,62.86
2023-04-23T19:35:08.015Z,62.31
2023-04-23T19:37:34.349Z,62.33
2023-04-23T19:40:00.683Z,61.83
2023-04-23T19:42:26.993Z,61.98
2023-04-23T19:44:53.289Z,62.13
2023-04-23T19:47:19.610Z,62.43
2023-04-23T19:49:45.950Z,62.39
2023-04-23T19:52:12.284Z,62.48
2023-04-23T19:54:38.592Z,63.15
2023-04-23T19:57:04.921Z,63.27
2023-04-23T19:59:31.244Z,63.46
2023-04-23T20:01:57.557Z,64.32
2023-04-23T20:04:23.986Z,63.79
2023-04-23T20:06:50.413Z,63.57
2023-04-23T20:09:16.709Z,63.20
2023-04-23T20:11:43.029Z,63.37
2023-04-23T20:14:09.346Z,62.38
2023-04-23T20:16:35.724Z,62.63
2023-04-23T20:19:02.091Z,61.88
2023-04-23T20:21:28.392Z,61.69
2023-04-23T20:23:54.695Z,61.75
2023-04-23T20:26:20.995Z,61.72
2023-04-23T20:28:47.310Z,61.15
2023-04-23T20:31:13.632Z,61.16
2023-04-23T20:33:39.954Z,61.08
2023-04-23T20:36:06.258Z,61.35
2023-04-23T20:38:32.576Z,62.26
2023-04-23T20:40:58.901Z,62.47
2023-04-23T20:43:25.215Z,63.08
2023-04-23T20:45:51.542Z,63.86
2023-04-23T20:48:17.860Z,64.50
2023-04-23T20:50:44.178Z,63.87
2023-04-23T20:53:10.489Z,57.65
2023-04-23T20:55:36.808Z,58.96
2023-04-23T20:58:03.120Z,58.84
2023-04-23T21:00:29.478Z,58.87
2023-04-23T21:02:55.982Z,59.71
2023-04-23T21:05:22.365Z,60.71
2023-04-23T21:07:48.678Z,59.88
2023-04-23T21:10:14.988Z,61.28
2023-04-23T21:12:41.289Z,62.03
2023-04-23T21:15:07.595Z,62.43
2023-04-23T21:17:33.952Z,62.26
2023-04-23T21:20:00.251Z,62.18
2023-04-23T21:22:26.561Z,61.62
2023-04-23T21:24:52.876Z,61.30
2023-04-23T21:27:19.190Z,61.87
2023-04-23T21:29:45.524Z,62.26
2023-04-23T21:32:11.846Z,61.22
2023-04-23T21:34:38.143Z,60.92
2023-04-23T21:37:04.458Z,61.46
2023-04-23T21:39:30.776Z,61.94
2023-04-23T21:41:57.097Z,62.45
2023-04-23T21:44:23.406Z,62.59
2023-04-23T21:46:49.742Z,63.36
2023-04-23T21:49:16.092Z,63.63
2023-04-23T21:51:42.389Z,64.18
2023-04-23T21:54:08.697Z,64.19
2023-04-23T21:56:35.023Z,63.37
2023-04-23T21:59:01.334Z,63.47
2023-04-23T22:01:27.683Z,62.94
2023-04-23T22:03:54.072Z,62.66
2023-04-23T22:06:20.452Z,62.92
2023-04-23T22:08:46.785Z,62.78
2023-04-23T22:11:13.098Z,62.37
2023-04-23T22:13:39.388Z,63.66
2023-04-23T22:16:13.381Z,64.11
2023-04-23T22:18:46.895Z,63.21
2023-04-23T22:21:13.219Z,61.76
2023-04-23T22:23:39.539Z,62.59
2023-04-23T22:26:05.854Z,63.52
2023-04-23T22:28:32.157Z,62.70
2023-04-23T22:30:58.448Z,63.46
2023-04-23T22:33:24.745Z,62.30
2023-04-23T22:35:51.040Z,61.28
2023-04-23T22:38:17.357Z,63.04
2023-04-23T22:40:43.668Z,61.68
2023-04-23T22:43:09.997Z,60.94
2023-04-23T22:45:36.337Z,62.07
2023-04-23T22:48:02.671Z,60.49
2023-04-23T22:50:29.014Z,61.17
2023-04-23T22:52:55.320Z,62.48
2023-04-23T22:55:21.649Z,62.99
2023-04-23T22:57:47.972Z,63.36
2023-04-23T23:00:14.305Z,63.80
2023-04-23T23:02:40.695Z,63.84
2023-04-23T23:05:07.059Z,64.52
2023-04-23T23:07:33.353Z,63.58
2023-04-23T23:09:59.670Z,63.70
2023-04-23T23:12:25.984Z,63.18
2023-04-23T23:14:52.362Z,63.52
2023-04-23T23:17:18.686Z,64.08
2023-04-23T23:19:45.156Z,64.17
2023-04-23T23:22:11.670Z,63.54
2023-04-23T23:24:37.996Z,63.08
2023-04-23T23:27:04.317Z,63.54
2023-04-23T23:29:30.636Z,63.14
2023-04-23T23:31:56.957Z,62.24
2023-04-23T23:34:23.273Z,63.18
2023-04-23T23:36:49.570Z,62.89
2023-04-23T23:39:15.865Z,62.88
2023-04-23T23:41:42.169Z,63.23
2023-04-23T23:44:08.484Z,63.80
2023-04-23T23:46:34.831Z,63.72
2023-04-23T23:49:01.158Z,63.71
2023-04-23T23:51:27.465Z,64.33
2023-04-23T23:53:53.784Z,66.54
2023-04-23T23:56:20.114Z,66.53
2023-04-23T23:58:46.405Z,66.50
